sensor_id;sensor_type;location;lat;lon;timestamp;P1;durP1;ratioP1;P2;durP2;ratioP2
44145;SDS011;29809;52.432;4.780;2023-03-21T00:00:17;1.88;;;1.20;;
44145;SDS011;29809;52.432;4.780;2023-03-21T00:02:42;1.20;;;1.10;;
44145;SDS011;29809;52.432;4.780;2023-03-21T00:05:07;1.77;;;1.00;;
44145;SDS011;29809;52.432;4.780;2023-03-21T00:07:33;1.23;;;1.00;;
44145;SDS011;29809;52.432;4.780;2023-03-21T00:09:58;1.90;;;1.10;;
44145;SDS011;29809;52.432;4.780;2023-03-21T00:12:23;2.08;;;1.05;;
44145;SDS011;29809;52.432;4.780;2023-03-21T00:14:48;1.38;;;1.10;;
44145;SDS011;29809;52.432;4.780;2023-03-21T00:17:14;1.10;;;1.10;;
44145;SDS011;29809;52.432;4.780;2023-03-21T00:19:39;1.30;;;1.20;;
44145;SDS011;29809;52.432;4.780;2023-03-21T00:22:05;1.25;;;1.15;;
44145;SDS011;29809;52.432;4.780;2023-03-21T00:24:30;3.08;;;1.48;;
44145;SDS011;29809;52.432;4.780;2023-03-21T00:26:56;2.78;;;1.55;;
44145;SDS011;29809;52.432;4.780;2023-03-21T00:29:21;1.55;;;1.45;;
44145;SDS011;29809;52.432;4.780;2023-03-21T00:31:46;2.53;;;1.60;;
44145;SDS011;29809;52.432;4.780;2023-03-21T00:34:12;1.83;;;1.60;;
44145;SDS011;29809;52.432;4.780;2023-03-21T00:36:37;2.65;;;1.67;;
44145;SDS011;29809;52.432;4.780;2023-03-21T00:39:02;2.92;;;1.83;;
44145;SDS011;29809;52.432;4.780;2023-03-21T00:41:28;4.30;;;2.10;;
44145;SDS011;29809;52.432;4.780;2023-03-21T00:43:54;3.50;;;1.95;;
44145;SDS011;29809;52.432;4.780;2023-03-21T00:46:19;3.35;;;1.77;;
44145;SDS011;29809;52.432;4.780;2023-03-21T00:48:45;3.85;;;1.88;;
44145;SDS011;29809;52.432;4.780;2023-03-21T00:51:11;2.90;;;2.60;;
44145;SDS011;29809;52.432;4.780;2023-03-21T00:53:37;2.42;;;1.90;;
44145;SDS011;29809;52.432;4.780;2023-03-21T00:56:02;3.03;;;2.33;;
44145;SDS011;29809;52.432;4.780;2023-03-21T00:58:28;2.45;;;2.20;;
44145;SDS011;29809;52.432;4.780;2023-03-21T01:00:53;3.65;;;2.22;;
44145;SDS011;29809;52.432;4.780;2023-03-21T01:03:18;4.13;;;2.53;;
44145;SDS011;29809;52.432;4.780;2023-03-21T01:05:45;4.32;;;2.10;;
44145;SDS011;29809;52.432;4.780;2023-03-21T01:08:30;3.38;;;2.35;;
44145;SDS011;29809;52.432;4.780;2023-03-21T01:10:55;4.40;;;2.58;;
44145;SDS011;29809;52.432;4.780;2023-03-21T01:13:22;5.05;;;2.58;;
44145;SDS011;29809;52.432;4.780;2023-03-21T01:15:49;3.80;;;2.75;;
44145;SDS011;29809;52.432;4.780;2023-03-21T01:18:15;2.95;;;2.30;;
44145;SDS011;29809;52.432;4.780;2023-03-21T01:20:41;5.32;;;3.22;;
44145;SDS011;29809;52.432;4.780;2023-03-21T01:23:07;14.45;;;3.70;;
44145;SDS011;29809;52.432;4.780;2023-03-21T01:25:32;3.25;;;2.95;;
44145;SDS011;29809;52.432;4.780;2023-03-21T01:27:58;3.28;;;2.85;;
44145;SDS011;29809;52.432;4.780;2023-03-21T01:30:23;3.30;;;2.97;;
44145;SDS011;29809;52.432;4.780;2023-03-21T01:32:48;3.58;;;3.05;;
44145;SDS011;29809;52.432;4.780;2023-03-21T01:35:14;3.33;;;3.00;;
44145;SDS011;29809;52.432;4.780;2023-03-21T01:37:39;4.32;;;3.17;;
44145;SDS011;29809;52.432;4.780;2023-03-21T01:40:04;3.35;;;3.05;;
44145;SDS011;29809;52.432;4.780;2023-03-21T01:42:30;4.15;;;3.20;;
44145;SDS011;29809;52.432;4.780;2023-03-21T01:47:21;4.38;;;3.50;;
44145;SDS011;29809;52.432;4.780;2023-03-21T01:49:48;2.85;;;2.63;;
44145;SDS011;29809;52.432;4.780;2023-03-21T01:52:19;5.50;;;3.20;;
44145;SDS011;29809;52.432;4.780;2023-03-21T01:54:45;3.63;;;3.13;;
44145;SDS011;29809;52.432;4.780;2023-03-21T01:57:13;4.40;;;3.25;;
44145;SDS011;29809;52.432;4.780;2023-03-21T01:59:40;2.83;;;2.53;;
44145;SDS011;29809;52.432;4.780;2023-03-21T02:02:08;4.10;;;2.83;;
44145;SDS011;29809;52.432;4.780;2023-03-21T02:04:35;3.20;;;2.58;;
44145;SDS011;29809;52.432;4.780;2023-03-21T02:07:06;3.70;;;2.67;;
44145;SDS011;29809;52.432;4.780;2023-03-21T02:09:34;2.95;;;2.55;;
44145;SDS011;29809;52.432;4.780;2023-03-21T02:12:01;2.70;;;2.28;;
44145;SDS011;29809;52.432;4.780;2023-03-21T02:14:26;3.75;;;2.15;;
44145;SDS011;29809;52.432;4.780;2023-03-21T02:16:55;4.63;;;2.38;;
44145;SDS011;29809;52.432;4.780;2023-03-21T02:19:31;2.63;;;2.28;;
44145;SDS011;29809;52.432;4.780;2023-03-21T02:22:06;2.55;;;2.30;;
44145;SDS011;29809;52.432;4.780;2023-03-21T02:24:42;2.47;;;2.28;;
44145;SDS011;29809;52.432;4.780;2023-03-21T02:27:14;3.30;;;2.30;;
44145;SDS011;29809;52.432;4.780;2023-03-21T02:37:19;4.50;;;2.33;;
44145;SDS011;29809;52.432;4.780;2023-03-21T02:40:04;2.22;;;2.00;;
44145;SDS011;29809;52.432;4.780;2023-03-21T02:47:38;2.78;;;2.38;;
44145;SDS011;29809;52.432;4.780;2023-03-21T02:50:14;3.53;;;2.60;;
44145;SDS011;29809;52.432;4.780;2023-03-21T02:52:42;3.53;;;2.90;;
44145;SDS011;29809;52.432;4.780;2023-03-21T02:55:13;6.35;;;3.00;;
44145;SDS011;29809;52.432;4.780;2023-03-21T02:57:42;4.22;;;2.80;;
44145;SDS011;29809;52.432;4.780;2023-03-21T03:00:08;3.60;;;2.97;;
44145;SDS011;29809;52.432;4.780;2023-03-21T03:02:36;3.70;;;2.93;;
44145;SDS011;29809;52.432;4.780;2023-03-21T03:05:10;3.67;;;2.78;;
44145;SDS011;29809;52.432;4.780;2023-03-21T03:07:39;3.70;;;3.05;;
44145;SDS011;29809;52.432;4.780;2023-03-21T03:12:46;4.10;;;3.25;;
44145;SDS011;29809;52.432;4.780;2023-03-21T03:15:18;3.50;;;3.20;;
44145;SDS011;29809;52.432;4.780;2023-03-21T03:23:34;4.03;;;3.63;;
44145;SDS011;29809;52.432;4.780;2023-03-21T03:28:35;3.65;;;2.80;;
44145;SDS011;29809;52.432;4.780;2023-03-21T03:31:01;6.20;;;2.85;;
44145;SDS011;29809;52.432;4.780;2023-03-21T03:33:27;5.43;;;2.85;;
44145;SDS011;29809;52.432;4.780;2023-03-21T03:35:53;3.22;;;2.80;;
44145;SDS011;29809;52.432;4.780;2023-03-21T03:38:20;3.55;;;3.08;;
44145;SDS011;29809;52.432;4.780;2023-03-21T03:41:09;3.42;;;2.60;;
44145;SDS011;29809;52.432;4.780;2023-03-21T03:43:54;2.97;;;2.67;;
44145;SDS011;29809;52.432;4.780;2023-03-21T03:48:59;4.85;;;3.17;;
44145;SDS011;29809;52.432;4.780;2023-03-21T03:51:33;3.33;;;2.70;;
44145;SDS011;29809;52.432;4.780;2023-03-21T03:54:20;3.40;;;3.00;;
44145;SDS011;29809;52.432;4.780;2023-03-21T03:56:47;5.38;;;3.20;;
44145;SDS011;29809;52.432;4.780;2023-03-21T03:59:14;2.63;;;2.42;;
44145;SDS011;29809;52.432;4.780;2023-03-21T04:01:43;4.22;;;2.80;;
44145;SDS011;29809;52.432;4.780;2023-03-21T04:04:08;3.92;;;3.00;;
44145;SDS011;29809;52.432;4.780;2023-03-21T04:06:33;2.92;;;2.63;;
44145;SDS011;29809;52.432;4.780;2023-03-21T04:08:59;3.75;;;3.35;;
44145;SDS011;29809;52.432;4.780;2023-03-21T04:11:24;3.53;;;3.22;;
44145;SDS011;29809;52.432;4.780;2023-03-21T04:13:49;3.28;;;2.95;;
44145;SDS011;29809;52.432;4.780;2023-03-21T04:16:15;4.53;;;3.65;;
44145;SDS011;29809;52.432;4.780;2023-03-21T04:18:41;3.88;;;3.40;;
44145;SDS011;29809;52.432;4.780;2023-03-21T04:21:10;3.67;;;3.38;;
44145;SDS011;29809;52.432;4.780;2023-03-21T04:23:36;4.40;;;3.92;;
44145;SDS011;29809;52.432;4.780;2023-03-21T04:26:02;4.50;;;3.97;;
44145;SDS011;29809;52.432;4.780;2023-03-21T04:28:28;4.47;;;4.07;;
44145;SDS011;29809;52.432;4.780;2023-03-21T04:30:53;5.57;;;4.55;;
44145;SDS011;29809;52.432;4.780;2023-03-21T04:33:21;6.45;;;4.47;;
44145;SDS011;29809;52.432;4.780;2023-03-21T04:35:49;5.18;;;4.15;;
44145;SDS011;29809;52.432;4.780;2023-03-21T04:38:15;6.13;;;4.30;;
44145;SDS011;29809;52.432;4.780;2023-03-21T04:40:40;7.72;;;5.00;;
44145;SDS011;29809;52.432;4.780;2023-03-21T04:43:05;6.05;;;4.90;;
44145;SDS011;29809;52.432;4.780;2023-03-21T04:45:31;5.65;;;4.90;;
44145;SDS011;29809;52.432;4.780;2023-03-21T04:47:56;5.07;;;4.32;;
44145;SDS011;29809;52.432;4.780;2023-03-21T04:50:22;5.72;;;5.20;;
44145;SDS011;29809;52.432;4.780;2023-03-21T04:52:47;4.85;;;4.43;;
44145;SDS011;29809;52.432;4.780;2023-03-21T04:55:12;5.65;;;4.63;;
44145;SDS011;29809;52.432;4.780;2023-03-21T04:57:38;6.05;;;5.18;;
44145;SDS011;29809;52.432;4.780;2023-03-21T05:00:04;5.72;;;5.07;;
44145;SDS011;29809;52.432;4.780;2023-03-21T05:02:33;6.03;;;4.35;;
44145;SDS011;29809;52.432;4.780;2023-03-21T05:04:58;5.43;;;4.85;;
44145;SDS011;29809;52.432;4.780;2023-03-21T05:07:24;6.97;;;4.78;;
44145;SDS011;29809;52.432;4.780;2023-03-21T05:09:50;5.43;;;4.32;;
44145;SDS011;29809;52.432;4.780;2023-03-21T05:12:15;6.35;;;4.75;;
44145;SDS011;29809;52.432;4.780;2023-03-21T05:14:42;5.60;;;4.90;;
44145;SDS011;29809;52.432;4.780;2023-03-21T05:17:07;6.70;;;4.90;;
44145;SDS011;29809;52.432;4.780;2023-03-21T05:19:34;5.03;;;4.45;;
44145;SDS011;29809;52.432;4.780;2023-03-21T05:22:04;5.57;;;4.25;;
44145;SDS011;29809;52.432;4.780;2023-03-21T05:24:29;7.50;;;4.88;;
44145;SDS011;29809;52.432;4.780;2023-03-21T05:26:55;5.82;;;4.47;;
44145;SDS011;29809;52.432;4.780;2023-03-21T05:29:26;5.30;;;4.43;;
44145;SDS011;29809;52.432;4.780;2023-03-21T05:31:51;6.15;;;4.35;;
44145;SDS011;29809;52.432;4.780;2023-03-21T05:34:16;6.88;;;4.45;;
44145;SDS011;29809;52.432;4.780;2023-03-21T05:36:42;6.60;;;5.15;;
44145;SDS011;29809;52.432;4.780;2023-03-21T05:39:07;6.72;;;4.90;;
44145;SDS011;29809;52.432;4.780;2023-03-21T05:41:32;8.23;;;5.22;;
44145;SDS011;29809;52.432;4.780;2023-03-21T05:43:57;5.65;;;5.00;;
44145;SDS011;29809;52.432;4.780;2023-03-21T05:46:24;9.40;;;5.30;;
44145;SDS011;29809;52.432;4.780;2023-03-21T05:48:49;6.60;;;5.85;;
44145;SDS011;29809;52.432;4.780;2023-03-21T05:51:15;7.90;;;5.80;;
44145;SDS011;29809;52.432;4.780;2023-03-21T05:53:40;9.73;;;5.22;;
44145;SDS011;29809;52.432;4.780;2023-03-21T05:56:05;8.55;;;5.07;;
44145;SDS011;29809;52.432;4.780;2023-03-21T05:58:31;8.50;;;5.80;;
44145;SDS011;29809;52.432;4.780;2023-03-21T06:00:57;7.45;;;5.13;;
44145;SDS011;29809;52.432;4.780;2023-03-21T06:03:22;9.25;;;5.78;;
44145;SDS011;29809;52.432;4.780;2023-03-21T06:05:47;7.35;;;5.80;;
44145;SDS011;29809;52.432;4.780;2023-03-21T06:08:12;9.02;;;5.72;;
44145;SDS011;29809;52.432;4.780;2023-03-21T06:10:38;62.13;;;14.38;;
44145;SDS011;29809;52.432;4.780;2023-03-21T06:13:03;52.85;;;18.23;;
44145;SDS011;29809;52.432;4.780;2023-03-21T06:15:28;79.50;;;29.05;;
44145;SDS011;29809;52.432;4.780;2023-03-21T06:17:54;73.57;;;25.85;;
44145;SDS011;29809;52.432;4.780;2023-03-21T06:20:20;70.93;;;24.27;;
44145;SDS011;29809;52.432;4.780;2023-03-21T06:22:45;75.10;;;23.27;;
44145;SDS011;29809;52.432;4.780;2023-03-21T06:25:10;56.33;;;23.23;;
44145;SDS011;29809;52.432;4.780;2023-03-21T06:27:36;57.40;;;21.20;;
44145;SDS011;29809;52.432;4.780;2023-03-21T06:30:01;45.95;;;19.13;;
44145;SDS011;29809;52.432;4.780;2023-03-21T06:32:27;43.85;;;19.75;;
44145;SDS011;29809;52.432;4.780;2023-03-21T06:34:52;37.92;;;16.85;;
44145;SDS011;29809;52.432;4.780;2023-03-21T06:37:18;33.75;;;16.05;;
44145;SDS011;29809;52.432;4.780;2023-03-21T06:39:43;35.58;;;16.02;;
44145;SDS011;29809;52.432;4.780;2023-03-21T06:42:08;36.65;;;15.80;;
44145;SDS011;29809;52.432;4.780;2023-03-21T06:44:34;35.45;;;16.33;;
44145;SDS011;29809;52.432;4.780;2023-03-21T06:46:59;32.30;;;14.23;;
44145;SDS011;29809;52.432;4.780;2023-03-21T06:49:24;31.98;;;13.52;;
44145;SDS011;29809;52.432;4.780;2023-03-21T06:51:50;33.55;;;14.43;;
44145;SDS011;29809;52.432;4.780;2023-03-21T06:54:16;32.65;;;14.20;;
44145;SDS011;29809;52.432;4.780;2023-03-21T06:56:42;25.00;;;13.43;;
44145;SDS011;29809;52.432;4.780;2023-03-21T06:59:08;26.13;;;12.55;;
44145;SDS011;29809;52.432;4.780;2023-03-21T07:01:33;22.38;;;11.75;;
44145;SDS011;29809;52.432;4.780;2023-03-21T07:04:01;22.67;;;12.25;;
44145;SDS011;29809;52.432;4.780;2023-03-21T07:06:28;25.73;;;11.38;;
44145;SDS011;29809;52.432;4.780;2023-03-21T07:08:54;23.45;;;11.70;;
44145;SDS011;29809;52.432;4.780;2023-03-21T07:11:20;20.30;;;10.85;;
44145;SDS011;29809;52.432;4.780;2023-03-21T07:13:45;23.23;;;11.23;;
44145;SDS011;29809;52.432;4.780;2023-03-21T07:16:12;23.25;;;11.15;;
44145;SDS011;29809;52.432;4.780;2023-03-21T07:18:37;17.52;;;9.55;;
44145;SDS011;29809;52.432;4.780;2023-03-21T07:21:03;17.13;;;9.45;;
44145;SDS011;29809;52.432;4.780;2023-03-21T07:23:28;27.35;;;9.10;;
44145;SDS011;29809;52.432;4.780;2023-03-21T07:25:53;16.38;;;8.65;;
44145;SDS011;29809;52.432;4.780;2023-03-21T07:28:19;19.35;;;8.57;;
44145;SDS011;29809;52.432;4.780;2023-03-21T07:30:50;14.27;;;7.43;;
44145;SDS011;29809;52.432;4.780;2023-03-21T07:33:16;14.18;;;8.13;;
44145;SDS011;29809;52.432;4.780;2023-03-21T07:35:41;13.50;;;7.05;;
44145;SDS011;29809;52.432;4.780;2023-03-21T07:38:06;16.98;;;6.97;;
44145;SDS011;29809;52.432;4.780;2023-03-21T07:40:31;15.88;;;7.15;;
44145;SDS011;29809;52.432;4.780;2023-03-21T07:42:57;13.07;;;6.95;;
44145;SDS011;29809;52.432;4.780;2023-03-21T07:45:22;14.00;;;6.97;;
44145;SDS011;29809;52.432;4.780;2023-03-21T07:47:49;13.30;;;7.18;;
44145;SDS011;29809;52.432;4.780;2023-03-21T07:50:15;12.35;;;6.93;;
44145;SDS011;29809;52.432;4.780;2023-03-21T07:52:40;9.48;;;6.32;;
44145;SDS011;29809;52.432;4.780;2023-03-21T07:55:06;14.95;;;7.25;;
44145;SDS011;29809;52.432;4.780;2023-03-21T07:57:31;14.85;;;7.30;;
44145;SDS011;29809;52.432;4.780;2023-03-21T07:59:56;12.25;;;6.40;;
44145;SDS011;29809;52.432;4.780;2023-03-21T08:02:21;8.90;;;6.22;;
44145;SDS011;29809;52.432;4.780;2023-03-21T08:04:47;8.77;;;5.85;;
44145;SDS011;29809;52.432;4.780;2023-03-21T08:07:12;7.57;;;5.00;;
44145;SDS011;29809;52.432;4.780;2023-03-21T08:09:38;8.25;;;5.35;;
44145;SDS011;29809;52.432;4.780;2023-03-21T08:12:04;9.68;;;6.45;;
44145;SDS011;29809;52.432;4.780;2023-03-21T08:14:29;9.60;;;5.80;;
44145;SDS011;29809;52.432;4.780;2023-03-21T08:16:54;10.82;;;5.60;;
44145;SDS011;29809;52.432;4.780;2023-03-21T08:19:20;10.60;;;5.53;;
44145;SDS011;29809;52.432;4.780;2023-03-21T08:21:46;7.30;;;5.03;;
44145;SDS011;29809;52.432;4.780;2023-03-21T08:24:12;9.23;;;5.25;;
44145;SDS011;29809;52.432;4.780;2023-03-21T08:26:37;6.93;;;5.15;;
44145;SDS011;29809;52.432;4.780;2023-03-21T08:29:02;8.05;;;5.30;;
44145;SDS011;29809;52.432;4.780;2023-03-21T08:31:27;5.72;;;4.15;;
44145;SDS011;29809;52.432;4.780;2023-03-21T08:33:53;7.03;;;4.88;;
44145;SDS011;29809;52.432;4.780;2023-03-21T08:36:22;7.53;;;4.35;;
44145;SDS011;29809;52.432;4.780;2023-03-21T08:38:48;8.15;;;4.68;;
44145;SDS011;29809;52.432;4.780;2023-03-21T08:41:18;7.20;;;4.15;;
44145;SDS011;29809;52.432;4.780;2023-03-21T08:43:45;6.88;;;4.10;;
44145;SDS011;29809;52.432;4.780;2023-03-21T08:46:11;6.82;;;3.97;;
44145;SDS011;29809;52.432;4.780;2023-03-21T08:48:36;7.45;;;4.30;;
44145;SDS011;29809;52.432;4.780;2023-03-21T08:51:03;7.40;;;4.25;;
44145;SDS011;29809;52.432;4.780;2023-03-21T08:53:28;6.28;;;3.97;;
44145;SDS011;29809;52.432;4.780;2023-03-21T08:55:53;5.13;;;3.50;;
44145;SDS011;29809;52.432;4.780;2023-03-21T08:58:18;7.80;;;3.70;;
44145;SDS011;29809;52.432;4.780;2023-03-21T09:00:44;5.75;;;3.83;;
44145;SDS011;29809;52.432;4.780;2023-03-21T09:03:09;4.15;;;3.53;;
44145;SDS011;29809;52.432;4.780;2023-03-21T09:05:34;4.07;;;3.70;;
44145;SDS011;29809;52.432;4.780;2023-03-21T09:08:00;6.70;;;3.67;;
44145;SDS011;29809;52.432;4.780;2023-03-21T09:10:27;7.72;;;4.00;;
44145;SDS011;29809;52.432;4.780;2023-03-21T09:12:53;5.17;;;3.53;;
44145;SDS011;29809;52.432;4.780;2023-03-21T09:15:18;6.68;;;3.75;;
44145;SDS011;29809;52.432;4.780;2023-03-21T09:17:45;5.13;;;3.35;;
44145;SDS011;29809;52.432;4.780;2023-03-21T09:20:14;6.05;;;3.60;;
44145;SDS011;29809;52.432;4.780;2023-03-21T09:22:42;4.63;;;3.40;;
44145;SDS011;29809;52.432;4.780;2023-03-21T09:25:08;3.92;;;3.17;;
44145;SDS011;29809;52.432;4.780;2023-03-21T09:27:35;4.38;;;3.60;;
44145;SDS011;29809;52.432;4.780;2023-03-21T09:30:00;4.72;;;3.45;;
44145;SDS011;29809;52.432;4.780;2023-03-21T09:32:26;6.32;;;3.72;;
44145;SDS011;29809;52.432;4.780;2023-03-21T09:34:52;4.97;;;3.70;;
44145;SDS011;29809;52.432;4.780;2023-03-21T09:37:22;5.20;;;3.20;;
44145;SDS011;29809;52.432;4.780;2023-03-21T09:39:47;4.15;;;2.70;;
44145;SDS011;29809;52.432;4.780;2023-03-21T09:44:58;4.63;;;3.25;;
44145;SDS011;29809;52.432;4.780;2023-03-21T09:47:27;5.93;;;3.45;;
44145;SDS011;29809;52.432;4.780;2023-03-21T09:50:00;5.28;;;3.40;;
44145;SDS011;29809;52.432;4.780;2023-03-21T09:55:03;6.25;;;3.30;;
44145;SDS011;29809;52.432;4.780;2023-03-21T09:57:30;5.13;;;3.13;;
44145;SDS011;29809;52.432;4.780;2023-03-21T09:59:57;3.75;;;2.63;;
44145;SDS011;29809;52.432;4.780;2023-03-21T10:02:37;4.28;;;3.00;;
44145;SDS011;29809;52.432;4.780;2023-03-21T10:05:20;5.38;;;2.90;;
44145;SDS011;29809;52.432;4.780;2023-03-21T10:07:55;4.60;;;2.75;;
44145;SDS011;29809;52.432;4.780;2023-03-21T10:10:33;3.08;;;2.63;;
44145;SDS011;29809;52.432;4.780;2023-03-21T10:13:01;3.35;;;2.50;;
44145;SDS011;29809;52.432;4.780;2023-03-21T10:15:26;4.10;;;3.05;;
44145;SDS011;29809;52.432;4.780;2023-03-21T10:18:01;5.07;;;2.85;;
44145;SDS011;29809;52.432;4.780;2023-03-21T10:20:33;3.40;;;2.80;;
44145;SDS011;29809;52.432;4.780;2023-03-21T10:22:59;4.68;;;2.97;;
44145;SDS011;29809;52.432;4.780;2023-03-21T10:25:41;4.30;;;3.08;;
44145;SDS011;29809;52.432;4.780;2023-03-21T10:28:08;6.38;;;2.92;;
44145;SDS011;29809;52.432;4.780;2023-03-21T10:33:12;3.65;;;3.00;;
44145;SDS011;29809;52.432;4.780;2023-03-21T10:35:38;7.15;;;3.60;;
44145;SDS011;29809;52.432;4.780;2023-03-21T10:38:05;5.78;;;2.90;;
44145;SDS011;29809;52.432;4.780;2023-03-21T10:40:31;5.25;;;3.10;;
44145;SDS011;29809;52.432;4.780;2023-03-21T10:42:56;5.35;;;3.33;;
44145;SDS011;29809;52.432;4.780;2023-03-21T10:45:39;4.43;;;3.00;;
44145;SDS011;29809;52.432;4.780;2023-03-21T10:48:05;5.78;;;3.47;;
44145;SDS011;29809;52.432;4.780;2023-03-21T10:50:31;6.10;;;3.30;;
44145;SDS011;29809;52.432;4.780;2023-03-21T10:52:56;4.07;;;3.05;;
44145;SDS011;29809;52.432;4.780;2023-03-21T10:55:32;3.83;;;3.28;;
44145;SDS011;29809;52.432;4.780;2023-03-21T10:57:58;5.65;;;3.63;;
44145;SDS011;29809;52.432;4.780;2023-03-21T11:00:26;6.63;;;3.85;;
44145;SDS011;29809;52.432;4.780;2023-03-21T11:02:53;4.80;;;3.40;;
44145;SDS011;29809;52.432;4.780;2023-03-21T11:05:19;5.15;;;3.60;;
44145;SDS011;29809;52.432;4.780;2023-03-21T11:07:47;5.82;;;4.40;;
44145;SDS011;29809;52.432;4.780;2023-03-21T11:10:14;5.45;;;4.22;;
44145;SDS011;29809;52.432;4.780;2023-03-21T11:12:40;4.70;;;3.65;;
44145;SDS011;29809;52.432;4.780;2023-03-21T11:17:49;5.38;;;3.75;;
44145;SDS011;29809;52.432;4.780;2023-03-21T11:20:16;4.45;;;3.83;;
44145;SDS011;29809;52.432;4.780;2023-03-21T11:22:43;8.50;;;4.20;;
44145;SDS011;29809;52.432;4.780;2023-03-21T11:25:26;6.55;;;4.00;;
44145;SDS011;29809;52.432;4.780;2023-03-21T11:27:56;6.18;;;3.92;;
44145;SDS011;29809;52.432;4.780;2023-03-21T11:30:22;5.30;;;4.32;;
44145;SDS011;29809;52.432;4.780;2023-03-21T11:32:53;7.15;;;3.92;;
44145;SDS011;29809;52.432;4.780;2023-03-21T11:35:20;6.53;;;4.30;;
44145;SDS011;29809;52.432;4.780;2023-03-21T11:37:50;5.78;;;3.90;;
44145;SDS011;29809;52.432;4.780;2023-03-21T11:45:23;5.68;;;4.15;;
44145;SDS011;29809;52.432;4.780;2023-03-21T11:47:49;9.15;;;4.70;;
44145;SDS011;29809;52.432;4.780;2023-03-21T11:52:42;6.82;;;4.32;;
44145;SDS011;29809;52.432;4.780;2023-03-21T11:58:00;5.70;;;4.28;;
44145;SDS011;29809;52.432;4.780;2023-03-21T12:00:28;8.07;;;4.28;;
44145;SDS011;29809;52.432;4.780;2023-03-21T12:03:03;6.57;;;3.70;;
44145;SDS011;29809;52.432;4.780;2023-03-21T12:05:34;5.28;;;3.83;;
44145;SDS011;29809;52.432;4.780;2023-03-21T12:15:51;9.10;;;4.93;;
44145;SDS011;29809;52.432;4.780;2023-03-21T12:18:27;5.93;;;3.60;;
44145;SDS011;29809;52.432;4.780;2023-03-21T12:21:06;5.35;;;3.33;;
44145;SDS011;29809;52.432;4.780;2023-03-21T12:23:56;5.60;;;3.30;;
44145;SDS011;29809;52.432;4.780;2023-03-21T12:26:25;5.25;;;3.50;;
44145;SDS011;29809;52.432;4.780;2023-03-21T12:29:04;6.47;;;3.70;;
44145;SDS011;29809;52.432;4.780;2023-03-21T12:31:37;5.28;;;2.88;;
44145;SDS011;29809;52.432;4.780;2023-03-21T12:39:33;4.90;;;2.95;;
44145;SDS011;29809;52.432;4.780;2023-03-21T12:44:25;7.25;;;3.22;;
44145;SDS011;29809;52.432;4.780;2023-03-21T12:47:00;4.90;;;2.80;;
44145;SDS011;29809;52.432;4.780;2023-03-21T12:49:38;3.28;;;2.60;;
44145;SDS011;29809;52.432;4.780;2023-03-21T12:54:35;5.28;;;3.15;;
44145;SDS011;29809;52.432;4.780;2023-03-21T13:00:00;6.78;;;2.95;;
44145;SDS011;29809;52.432;4.780;2023-03-21T13:02:43;5.68;;;2.78;;
44145;SDS011;29809;52.432;4.780;2023-03-21T13:05:16;4.63;;;2.90;;
44145;SDS011;29809;52.432;4.780;2023-03-21T13:07:42;8.15;;;3.03;;
44145;SDS011;29809;52.432;4.780;2023-03-21T13:10:16;6.57;;;2.88;;
44145;SDS011;29809;52.432;4.780;2023-03-21T13:12:50;4.50;;;2.72;;
44145;SDS011;29809;52.432;4.780;2023-03-21T13:20:55;5.50;;;2.97;;
44145;SDS011;29809;52.432;4.780;2023-03-21T13:23:22;8.23;;;2.80;;
44145;SDS011;29809;52.432;4.780;2023-03-21T13:25:48;5.60;;;3.10;;
44145;SDS011;29809;52.432;4.780;2023-03-21T13:28:21;5.03;;;3.30;;
44145;SDS011;29809;52.432;4.780;2023-03-21T13:30:47;4.32;;;2.92;;
44145;SDS011;29809;52.432;4.780;2023-03-21T13:33:20;4.72;;;3.10;;
44145;SDS011;29809;52.432;4.780;2023-03-21T13:35:52;7.03;;;3.20;;
44145;SDS011;29809;52.432;4.780;2023-03-21T13:40:47;5.00;;;3.20;;
44145;SDS011;29809;52.432;4.780;2023-03-21T13:46:07;6.82;;;3.67;;
44145;SDS011;29809;52.432;4.780;2023-03-21T13:48:43;5.28;;;3.33;;
44145;SDS011;29809;52.432;4.780;2023-03-21T13:51:12;4.82;;;3.25;;
44145;SDS011;29809;52.432;4.780;2023-03-21T13:53:40;5.85;;;2.75;;
44145;SDS011;29809;52.432;4.780;2023-03-21T13:56:14;4.65;;;2.33;;
44145;SDS011;29809;52.432;4.780;2023-03-21T14:01:10;3.63;;;2.83;;
44145;SDS011;29809;52.432;4.780;2023-03-21T14:03:37;2.67;;;2.42;;
44145;SDS011;29809;52.432;4.780;2023-03-21T14:06:03;5.13;;;2.47;;
44145;SDS011;29809;52.432;4.780;2023-03-21T14:08:28;7.45;;;3.22;;
44145;SDS011;29809;52.432;4.780;2023-03-21T14:10:56;3.63;;;2.67;;
44145;SDS011;29809;52.432;4.780;2023-03-21T14:13:24;3.97;;;2.50;;
44145;SDS011;29809;52.432;4.780;2023-03-21T14:15:51;4.28;;;2.70;;
44145;SDS011;29809;52.432;4.780;2023-03-21T14:18:21;3.83;;;2.47;;
44145;SDS011;29809;52.432;4.780;2023-03-21T14:20:55;5.97;;;3.25;;
44145;SDS011;29809;52.432;4.780;2023-03-21T14:23:21;5.68;;;2.83;;
44145;SDS011;29809;52.432;4.780;2023-03-21T14:25:47;5.45;;;3.22;;
44145;SDS011;29809;52.432;4.780;2023-03-21T14:28:25;8.20;;;3.63;;
44145;SDS011;29809;52.432;4.780;2023-03-21T14:30:56;5.10;;;3.38;;
44145;SDS011;29809;52.432;4.780;2023-03-21T14:33:39;4.85;;;3.45;;
44145;SDS011;29809;52.432;4.780;2023-03-21T14:36:10;6.22;;;3.45;;
44145;SDS011;29809;52.432;4.780;2023-03-21T14:38:37;4.10;;;3.00;;
44145;SDS011;29809;52.432;4.780;2023-03-21T14:41:03;5.05;;;3.20;;
44145;SDS011;29809;52.432;4.780;2023-03-21T14:43:29;4.65;;;3.53;;
44145;SDS011;29809;52.432;4.780;2023-03-21T14:45:57;4.70;;;3.33;;
44145;SDS011;29809;52.432;4.780;2023-03-21T14:48:30;6.20;;;3.55;;
44145;SDS011;29809;52.432;4.780;2023-03-21T14:50:56;3.75;;;2.90;;
44145;SDS011;29809;52.432;4.780;2023-03-21T14:53:29;3.33;;;2.97;;
44145;SDS011;29809;52.432;4.780;2023-03-21T14:55:59;4.00;;;2.80;;
44145;SDS011;29809;52.432;4.780;2023-03-21T14:58:26;5.30;;;2.90;;
44145;SDS011;29809;52.432;4.780;2023-03-21T15:00:52;4.40;;;2.90;;
44145;SDS011;29809;52.432;4.780;2023-03-21T15:03:18;4.82;;;2.90;;
44145;SDS011;29809;52.432;4.780;2023-03-21T15:05:45;4.93;;;3.38;;
44145;SDS011;29809;52.432;4.780;2023-03-21T15:10:35;2.97;;;2.63;;
44145;SDS011;29809;52.432;4.780;2023-03-21T15:13:11;4.05;;;2.60;;
44145;SDS011;29809;52.432;4.780;2023-03-21T15:15:37;2.92;;;2.67;;
44145;SDS011;29809;52.432;4.780;2023-03-21T15:18:04;5.05;;;2.80;;
44145;SDS011;29809;52.432;4.780;2023-03-21T15:20:30;5.40;;;3.03;;
44145;SDS011;29809;52.432;4.780;2023-03-21T15:22:58;3.65;;;2.08;;
44145;SDS011;29809;52.432;4.780;2023-03-21T15:25:27;2.80;;;2.05;;
44145;SDS011;29809;52.432;4.780;2023-03-21T15:27:53;3.22;;;2.30;;
44145;SDS011;29809;52.432;4.780;2023-03-21T15:30:21;4.72;;;2.50;;
44145;SDS011;29809;52.432;4.780;2023-03-21T15:32:47;5.18;;;2.17;;
44145;SDS011;29809;52.432;4.780;2023-03-21T15:35:20;3.42;;;2.10;;
44145;SDS011;29809;52.432;4.780;2023-03-21T15:37:53;3.47;;;2.03;;
44145;SDS011;29809;52.432;4.780;2023-03-21T15:40:20;4.13;;;2.22;;
44145;SDS011;29809;52.432;4.780;2023-03-21T15:42:45;3.47;;;2.38;;
44145;SDS011;29809;52.432;4.780;2023-03-21T15:50:17;3.03;;;1.90;;
44145;SDS011;29809;52.432;4.780;2023-03-21T15:52:46;4.95;;;2.03;;
44145;SDS011;29809;52.432;4.780;2023-03-21T15:55:17;5.22;;;2.25;;
44145;SDS011;29809;52.432;4.780;2023-03-21T15:57:45;2.72;;;1.63;;
44145;SDS011;29809;52.432;4.780;2023-03-21T16:02:43;3.72;;;1.33;;
44145;SDS011;29809;52.432;4.780;2023-03-21T16:05:21;11.35;;;1.98;;
44145;SDS011;29809;52.432;4.780;2023-03-21T16:07:47;4.78;;;1.58;;
44145;SDS011;29809;52.432;4.780;2023-03-21T16:10:35;2.28;;;1.30;;
44145;SDS011;29809;52.432;4.780;2023-03-21T16:12:58;3.55;;;1.67;;
44145;SDS011;29809;52.432;4.780;2023-03-21T16:15:25;3.65;;;1.58;;
44145;SDS011;29809;52.432;4.780;2023-03-21T16:17:51;6.75;;;2.20;;
44145;SDS011;29809;52.432;4.780;2023-03-21T16:20:19;1.58;;;1.15;;
44145;SDS011;29809;52.432;4.780;2023-03-21T16:22:46;3.95;;;2.00;;